Time;durP1;ratioP1;P1;durP2;ratioP2;P2;SDS_P1;SDS_P2;PMS_P1;PMS_P2;Temp;Humidity;BMP_temperature;BMP_pressure;BME280_temperature;BME280_humidity;BME280_pressure;Samples;Min_cycle;Max_cycle;Signal;HPM_P1;HPM_P2
2022/06/17 00:00:53;;;;;;;11.10;7.57;;;14.00;99.90;;;;;;6202381;23;20202;-91
2022/06/17 00:03:20;;;;;;;9.43;5.90;;;14.10;99.90;;;;;;6213707;23;20623;-91
2022/06/17 00:05:46;;;;;;;11.03;7.40;;;14.10;99.90;;;;;;6190664;23;20158;-92
2022/06/17 00:08:20;;;;;;;11.07;6.47;;;14.20;99.90;;;;;;6188926;23;20197;-91
2022/06/17 00:10:46;;;;;;;12.43;7.50;;;14.20;99.90;;;;;;6213856;23;20197;-90
2022/06/17 00:13:15;;;;;;;13.63;8.00;;;14.20;99.90;;;;;;6164012;23;20240;-90
2022/06/17 00:15:41;;;;;;;12.20;7.33;;;14.20;99.90;;;;;;6213318;23;20209;-90
2022/06/17 00:18:07;;;;;;;11.40;7.53;;;14.30;99.90;;;;;;6188782;23;20181;-91
2022/06/17 00:20:34;;;;;;;13.13;8.67;;;14.30;99.90;;;;;;6189093;23;20162;-91
2022/06/17 00:23:01;;;;;;;10.07;7.20;;;14.30;99.90;;;;;;6187948;23;20218;-90
2022/06/17 00:25:33;;;;;;;11.17;7.40;;;14.30;99.90;;;;;;6188610;23;20924;-91
2022/06/17 00:27:59;;;;;;;13.13;7.70;;;14.30;99.90;;;;;;6213486;23;20674;-92
2022/06/17 00:30:28;;;;;;;11.87;7.33;;;14.30;99.90;;;;;;6213138;23;20189;-92
2022/06/17 00:32:56;;;;;;;11.80;7.80;;;14.30;99.90;;;;;;6214101;23;20650;-91
2022/06/17 00:35:26;;;;;;;12.57;8.27;;;14.30;99.90;;;;;;6188629;23;20188;-91
2022/06/17 00:37:52;;;;;;;13.10;8.50;;;14.30;99.90;;;;;;6213267;23;20194;-91
2022/06/17 00:40:22;;;;;;;13.33;8.13;;;14.30;99.90;;;;;;6163561;23;20273;-91
2022/06/17 00:42:48;;;;;;;12.47;7.87;;;14.30;99.90;;;;;;6213199;23;20272;-91
2022/06/17 00:45:28;;;;;;;13.83;8.50;;;14.40;99.90;;;;;;6163301;23;20249;-90
2022/06/17 00:48:27;;;;;;;10.27;7.53;;;14.30;99.90;;;;;;6213832;23;20148;-91
2022/06/17 00:51:16;;;;;;;12.57;9.30;;;14.30;99.90;;;;;;6191668;23;20198;-90
2022/06/17 00:53:51;;;;;;;12.33;8.50;;;14.20;99.90;;;;;;6213609;23;20149;-91
2022/06/17 00:56:22;;;;;;;10.93;7.13;;;14.20;99.90;;;;;;6212847;23;20220;-91
2022/06/17 00:58:57;;;;;;;10.27;8.43;;;14.00;99.90;;;;;;6212899;23;20245;-91
2022/06/17 01:01:23;;;;;;;12.17;7.33;;;13.80;99.90;;;;;;6212837;23;20232;-92
2022/06/17 01:03:57;;;;;;;12.13;7.83;;;13.70;99.90;;;;;;6186766;23;20585;-92
2022/06/17 01:06:30;;;;;;;8.17;6.67;;;13.70;99.90;;;;;;6212286;23;20200;-92
2022/06/17 01:12:04;;;;;;;12.80;7.23;;;13.40;99.90;;;;;;6213469;23;20190;-91
2022/06/17 01:14:30;;;;;;;9.17;7.27;;;13.40;99.90;;;;;;6212605;23;20145;-91
2022/06/17 01:16:57;;;;;;;14.33;9.97;;;13.50;99.90;;;;;;6211787;23;20283;-91
2022/06/17 01:19:22;;;;;;;14.90;10.03;;;13.60;99.90;;;;;;6211998;23;20193;-92
2022/06/17 01:22:09;;;;;;;16.13;8.47;;;13.80;99.90;;;;;;6211723;23;20627;-91
2022/06/17 01:24:35;;;;;;;12.60;9.10;;;13.90;99.90;;;;;;6211944;23;20224;-92
2022/06/17 01:27:01;;;;;;;16.83;8.97;;;14.00;99.90;;;;;;6186881;23;20158;-92
2022/06/17 01:29:27;;;;;;;15.50;9.17;;;14.10;99.90;;;;;;6187229;23;20285;-92
2022/06/17 01:31:54;;;;;;;15.13;9.83;;;14.10;99.90;;;;;;6162020;23;20217;-92
2022/06/17 01:34:21;;;;;;;11.70;9.37;;;14.20;99.90;;;;;;6186385;23;20194;-91
2022/06/17 01:36:48;;;;;;;15.73;9.33;;;14.20;99.90;;;;;;6186463;23;20248;-93
2022/06/17 01:39:16;;;;;;;12.60;9.00;;;14.10;99.90;;;;;;6212078;23;20487;-91
2022/06/17 01:41:44;;;;;;;12.67;8.67;;;14.20;99.90;;;;;;6187218;23;20158;-92
2022/06/17 01:44:17;;;;;;;14.17;8.77;;;14.20;99.90;;;;;;6186458;23;20201;-92
2022/06/17 01:46:46;;;;;;;15.27;9.23;;;14.10;99.90;;;;;;6211402;23;20194;-92
2022/06/17 01:49:19;;;;;;;14.23;10.30;;;14.10;99.90;;;;;;6211333;23;20240;-91
2022/06/17 01:51:59;;;;;;;14.37;8.13;;;14.10;99.90;;;;;;6211224;23;20194;-91
2022/06/17 01:54:30;;;;;;;12.70;8.40;;;14.10;99.90;;;;;;6211542;23;20197;-91
2022/06/17 01:57:00;;;;;;;17.27;9.40;;;14.10;99.90;;;;;;6212793;23;20197;-90
2022/06/17 01:59:38;;;;;;;15.00;8.47;;;14.10;99.90;;;;;;6211819;23;20205;-91
2022/06/17 02:04:21;;;;;;;13.03;8.27;;;14.10;99.90;;;;;;5049742;27;20646;-85
2022/06/17 02:07:02;;;;;;;12.60;8.13;;;14.20;99.90;;;;;;5039227;28;20236;-81
2022/06/17 02:09:27;;;;;;;18.53;9.13;;;14.20;99.90;;;;;;5038852;28;20570;-84
2022/06/17 02:11:54;;;;;;;13.30;9.53;;;14.20;99.90;;;;;;5020985;28;20300;-82
2022/06/17 02:14:22;;;;;;;13.60;8.13;;;14.10;99.90;;;;;;5037682;28;20308;-84
2022/06/17 02:16:52;;;;;;;11.83;8.70;;;14.10;99.90;;;;;;5038225;28;20252;-81
2022/06/17 02:19:21;;;;;;;15.13;8.47;;;14.10;99.90;;;;;;5037890;28;20226;-82
2022/06/17 02:21:58;;;;;;;9.77;7.57;;;14.10;99.90;;;;;;5069970;28;20214;-84
2022/06/17 02:24:26;;;;;;;15.73;7.13;;;14.10;99.90;;;;;;5037729;28;20292;-81
2022/06/17 02:26:52;;;;;;;12.13;8.30;;;14.00;99.90;;;;;;5036061;28;20546;-83
2022/06/17 02:29:19;;;;;;;13.43;8.43;;;14.00;99.90;;;;;;5038238;28;20226;-79
2022/06/17 02:31:46;;;;;;;13.27;8.07;;;14.00;99.90;;;;;;5037868;28;20271;-80
2022/06/17 02:34:14;;;;;;;12.13;7.83;;;14.00;99.90;;;;;;5036616;28;20252;-79
2022/06/17 02:36:58;;;;;;;13.30;8.23;;;13.90;99.90;;;;;;5038327;28;20227;-80
2022/06/17 02:39:26;;;;;;;10.97;7.67;;;14.00;99.90;;;;;;5037999;28;20230;-81
2022/06/17 02:41:52;;;;;;;13.53;8.70;;;14.10;99.90;;;;;;5070498;28;20876;-80
2022/06/17 02:44:23;;;;;;;13.53;9.10;;;14.20;99.90;;;;;;5037845;28;20625;-81
2022/06/17 02:46:53;;;;;;;15.10;8.67;;;14.20;99.90;;;;;;5038320;28;20222;-80
2022/06/17 02:49:25;;;;;;;11.20;7.93;;;14.30;99.90;;;;;;5023875;28;20332;-80
2022/06/17 02:51:51;;;;;;;11.20;8.50;;;14.30;99.90;;;;;;5036339;28;20222;-82
2022/06/17 02:54:38;;;;;;;10.53;7.50;;;14.30;99.90;;;;;;5037362;28;20775;-81
2022/06/17 02:57:13;;;;;;;10.30;7.90;;;14.30;99.90;;;;;;5038322;28;20239;-81
2022/06/17 02:59:44;;;;;;;14.83;7.90;;;14.30;99.90;;;;;;5039452;28;20178;-81
2022/06/17 03:02:28;;;;;;;10.07;7.30;;;14.30;99.90;;;;;;5038681;28;20666;-79
2022/06/17 03:04:54;;;;;;;14.00;7.07;;;14.30;99.90;;;;;;5038881;28;20752;-83
2022/06/17 03:07:22;;;;;;;10.43;7.00;;;14.30;99.90;;;;;;5039609;28;20209;-80
2022/06/17 03:09:48;;;;;;;10.27;7.10;;;14.30;99.90;;;;;;5071410;28;20953;-80
2022/06/17 03:12:19;;;;;;;14.10;8.63;;;14.30;99.90;;;;;;5039126;28;20209;-80
2022/06/17 03:15:07;;;;;;;10.73;7.23;;;14.30;99.90;;;;;;5030884;28;20258;-80
2022/06/17 03:17:39;;;;;;;15.50;7.43;;;14.40;99.90;;;;;;5025760;28;20225;-80
2022/06/17 03:20:13;;;;;;;12.57;7.17;;;14.40;99.90;;;;;;5025780;28;20218;-79
2022/06/17 03:22:39;;;;;;;14.30;7.80;;;14.40;99.90;;;;;;5025633;28;20281;-82
2022/06/17 03:25:16;;;;;;;10.47;7.00;;;14.50;99.90;;;;;;5024614;28;20591;-80
2022/06/17 03:27:49;;;;;;;8.90;6.10;;;14.50;99.90;;;;;;5025605;28;20218;-80
2022/06/17 03:30:42;;;;;;;14.53;6.40;;;14.50;99.90;;;;;;5024538;28;20214;-80
2022/06/17 03:33:19;;;;;;;10.93;7.33;;;14.60;99.90;;;;;;5024368;28;20205;-80
2022/06/17 03:35:48;;;;;;;10.57;7.10;;;14.70;99.90;;;;;;5024661;28;20178;-82
2022/06/17 03:38:23;;;;;;;7.63;6.93;;;14.70;99.90;;;;;;5023370;28;20227;-82
2022/06/17 03:40:53;;;;;;;11.07;6.60;;;14.70;99.90;;;;;;5025397;28;20225;-82
2022/06/17 03:43:21;;;;;;;11.83;7.03;;;14.80;99.90;;;;;;5025682;28;20238;-81
2022/06/17 03:46:02;;;;;;;8.33;7.17;;;14.80;99.90;;;;;;5024960;28;21012;-80
2022/06/17 03:48:49;;;;;;;9.83;6.93;;;14.90;99.90;;;;;;5025446;28;20250;-81
2022/06/17 03:51:21;;;;;;;12.07;6.90;;;14.90;99.90;;;;;;5024924;28;20193;-82
2022/06/17 03:53:48;;;;;;;7.47;6.07;;;15.00;99.90;;;;;;5027344;28;20221;-83
2022/06/17 03:56:21;;;;;;;11.13;5.97;;;15.10;99.90;;;;;;5026395;28;20300;-82
2022/06/17 03:58:48;;;;;;;10.47;6.47;;;15.10;99.90;;;;;;5025562;28;20284;-83
2022/06/17 04:01:19;;;;;;;9.93;7.03;;;15.10;99.90;;;;;;5023597;28;20411;-82
2022/06/17 04:03:56;;;;;;;10.80;7.07;;;15.10;99.90;;;;;;5023066;28;20223;-86
2022/06/17 04:06:25;;;;;;;9.27;6.17;;;15.10;99.90;;;;;;5022017;28;20218;-82
2022/06/17 04:09:05;;;;;;;7.23;6.17;;;15.10;99.90;;;;;;5023920;28;20183;-86
2022/06/17 04:11:39;;;;;;;11.83;6.10;;;15.20;99.90;;;;;;5023023;28;20229;-81
2022/06/17 04:14:15;;;;;;;11.13;5.30;;;15.20;99.90;;;;;;5022138;28;20222;-86
2022/06/17 04:16:59;;;;;;;13.50;6.63;;;15.20;99.90;;;;;;5022920;28;20224;-85
2022/06/17 04:19:27;;;;;;;8.47;6.27;;;15.20;99.90;;;;;;5024599;28;20211;-83
2022/06/17 04:22:02;;;;;;;9.33;6.30;;;15.20;99.90;;;;;;5024234;28;20214;-86
2022/06/17 04:24:29;;;;;;;8.57;5.93;;;15.20;99.90;;;;;;5022416;28;20243;-82
2022/06/17 04:27:07;;;;;;;9.30;6.80;;;15.20;99.90;;;;;;5004198;28;21034;-83
2022/06/17 04:29:46;;;;;;;14.37;7.33;;;15.20;99.90;;;;;;5024529;28;20656;-83
2022/06/17 04:32:29;;;;;;;9.03;6.13;;;15.20;99.90;;;;;;5025899;28;20240;-81
2022/06/17 04:34:55;;;;;;;7.80;5.40;;;15.30;99.90;;;;;;5024134;28;20233;-81
2022/06/17 04:37:22;;;;;;;11.43;6.53;;;15.30;99.90;;;;;;5025220;28;20714;-82
2022/06/17 04:39:52;;;;;;;8.40;6.57;;;15.40;99.90;;;;;;5039660;28;20226;-82
2022/06/17 04:42:43;;;;;;;6.70;5.63;;;15.40;99.90;;;;;;5025347;28;20230;-81
2022/06/17 04:45:29;;;;;;;6.80;5.93;;;15.40;99.90;;;;;;5024122;28;20201;-82
2022/06/17 04:47:57;;;;;;;9.23;5.80;;;15.50;99.90;;;;;;5040104;28;20186;-83
2022/06/17 04:50:26;;;;;;;10.23;6.10;;;15.50;99.90;;;;;;5040637;28;20621;-85
2022/06/17 04:52:54;;;;;;;8.77;6.00;;;15.60;99.90;;;;;;5025177;28;20680;-83
2022/06/17 04:55:34;;;;;;;12.33;5.80;;;15.60;99.90;;;;;;5024330;28;20309;-80
2022/06/17 04:58:00;;;;;;;8.80;6.47;;;15.70;99.90;;;;;;5024089;28;20695;-82
2022/06/17 05:00:27;;;;;;;8.23;5.50;;;15.70;99.90;;;;;;5024534;28;20264;-83
2022/06/17 05:02:54;;;;;;;7.20;6.33;;;15.70;99.90;;;;;;5056981;28;20230;-82
2022/06/17 05:05:28;;;;;;;9.33;6.73;;;15.70;99.90;;;;;;5023083;28;20226;-82
2022/06/17 05:07:56;;;;;;;9.97;5.27;;;15.70;99.90;;;;;;5020825;28;20245;-84
2022/06/17 05:10:26;;;;;;;8.60;6.03;;;15.70;99.90;;;;;;5055850;28;20222;-81
2022/06/17 05:13:02;;;;;;;10.07;5.83;;;15.80;99.90;;;;;;5021405;28;20237;-82
2022/06/17 05:15:29;;;;;;;11.00;6.13;;;15.80;99.90;;;;;;5022025;28;20557;-84
2022/06/17 05:17:56;;;;;;;10.20;6.77;;;15.90;99.90;;;;;;5022961;28;20186;-84
2022/06/17 05:20:24;;;;;;;9.23;6.47;;;15.90;99.90;;;;;;5023120;28;20225;-82
2022/06/17 05:22:54;;;;;;;6.80;5.63;;;16.00;99.90;;;;;;5006710;28;20253;-81
2022/06/17 05:25:24;;;;;;;9.00;6.10;;;16.00;99.90;;;;;;5024035;28;20226;-82
2022/06/17 05:27:50;;;;;;;9.13;6.27;;;16.00;99.90;;;;;;5023167;28;20667;-83
2022/06/17 05:30:16;;;;;;;10.80;5.83;;;16.10;99.90;;;;;;5039580;28;20222;-84
2022/06/17 05:32:46;;;;;;;10.20;6.93;;;16.10;99.90;;;;;;5024872;28;20198;-82
2022/06/17 05:35:13;;;;;;;9.93;6.30;;;16.20;99.90;;;;;;5031259;28;20699;-82
2022/06/17 05:37:39;;;;;;;9.77;6.43;;;16.30;99.90;;;;;;5023872;28;20230;-81
2022/06/17 05:40:08;;;;;;;12.30;6.93;;;16.40;99.90;;;;;;5014618;28;20222;-83
2022/06/17 05:42:38;;;;;;;8.67;6.07;;;16.50;99.90;;;;;;5024857;28;20626;-83
2022/06/17 05:45:05;;;;;;;6.40;5.67;;;16.50;99.90;;;;;;5023709;28;20195;-82
2022/06/17 05:47:31;;;;;;;7.47;5.97;;;16.60;99.90;;;;;;5024842;28;20264;-80
2022/06/17 05:49:56;;;;;;;11.73;6.93;;;16.70;99.90;;;;;;5024238;28;20979;-83
2022/06/17 05:52:22;;;;;;;11.50;7.70;;;16.80;99.90;;;;;;5025007;28;20283;-82
2022/06/17 05:54:48;;;;;;;13.63;7.07;;;16.90;99.90;;;;;;5022938;28;20218;-82
2022/06/17 05:57:14;;;;;;;8.27;6.40;;;17.00;99.90;;;;;;5022822;28;20221;-84
2022/06/17 05:59:40;;;;;;;8.47;5.70;;;17.20;99.90;;;;;;5023186;28;20186;-83
2022/06/17 06:02:06;;;;;;;10.40;6.53;;;17.40;99.90;;;;;;5023034;28;20233;-83
2022/06/17 06:04:32;;;;;;;8.03;6.23;;;17.50;99.90;;;;;;5005818;28;20361;-85
2022/06/17 06:06:59;;;;;;;8.60;6.00;;;17.70;99.90;;;;;;5024348;28;20265;-86
2022/06/17 06:09:25;;;;;;;12.20;6.97;;;17.90;99.90;;;;;;5024699;28;20223;-83
2022/06/17 06:11:52;;;;;;;10.10;6.23;;;18.10;99.90;;;;;;5024004;28;20186;-82
2022/06/17 06:14:18;;;;;;;8.93;6.27;;;18.20;99.90;;;;;;5023821;28;20672;-83
2022/06/17 06:16:43;;;;;;;8.30;6.40;;;18.20;99.90;;;;;;5024233;28;20230;-86
2022/06/17 06:19:09;;;;;;;9.40;6.53;;;18.30;99.90;;;;;;5022974;28;20210;-83
2022/06/17 06:21:35;;;;;;;10.00;7.60;;;18.30;99.90;;;;;;5023503;28;20211;-83
2022/06/17 06:24:00;;;;;;;8.77;6.60;;;18.30;99.90;;;;;;5022998;28;20207;-84
2022/06/17 06:26:26;;;;;;;10.13;6.83;;;18.30;99.90;;;;;;5025022;28;20300;-84
2022/06/17 06:28:52;;;;;;;10.17;6.80;;;18.20;99.90;;;;;;5024160;28;20595;-87
2022/06/17 06:31:28;;;;;;;14.97;6.83;;;18.20;99.90;;;;;;5025695;28;20261;-84
2022/06/17 06:33:55;;;;;;;7.43;6.33;;;18.10;99.90;;;;;;5025157;28;20218;-84
2022/06/17 06:36:21;;;;;;;6.97;5.87;;;18.00;99.90;;;;;;5024770;28;20305;-87
2022/06/17 06:38:47;;;;;;;8.97;5.67;;;18.00;99.90;;;;;;5024451;28;20286;-82
2022/06/17 06:41:13;;;;;;;10.53;7.53;;;18.00;99.90;;;;;;5024024;28;20977;-85
2022/06/17 06:43:39;;;;;;;8.03;6.80;;;18.10;99.90;;;;;;5024471;28;20314;-82
2022/06/17 06:46:11;;;;;;;8.77;6.10;;;18.20;99.90;;;;;;5024029;28;20236;-83
2022/06/17 06:48:37;;;;;;;8.50;6.67;;;18.30;99.90;;;;;;5024391;28;20301;-83
2022/06/17 06:51:03;;;;;;;8.30;6.67;;;18.50;99.90;;;;;;5026888;28;20274;-84
2022/06/17 06:53:28;;;;;;;7.13;6.27;;;18.70;99.90;;;;;;5044417;28;20194;-83
2022/06/17 06:55:54;;;;;;;8.00;6.57;;;18.90;99.90;;;;;;5027871;28;20233;-84
2022/06/17 06:58:23;;;;;;;9.60;6.00;;;19.20;99.90;;;;;;5027679;28;20233;-87
2022/06/17 07:00:51;;;;;;;8.73;6.33;;;19.40;99.90;;;;;;5026714;28;20222;-86
2022/06/17 07:03:18;;;;;;;12.27;6.50;;;19.70;99.90;;;;;;5027401;28;20239;-83
2022/06/17 07:05:48;;;;;;;7.60;6.17;;;19.70;99.90;;;;;;5010132;28;20605;-85
2022/06/17 07:08:16;;;;;;;12.27;6.80;;;19.90;99.90;;;;;;5026729;28;20292;-84
2022/06/17 07:10:43;;;;;;;7.53;6.00;;;19.90;99.90;;;;;;5026782;28;20218;-84
2022/06/17 07:13:09;;;;;;;7.77;5.83;;;20.00;99.90;;;;;;5059566;28;20226;-86
2022/06/17 07:15:38;;;;;;;6.77;5.63;;;20.10;99.90;;;;;;5027784;28;20581;-85
2022/06/17 07:18:22;;;;;;;9.07;7.13;;;20.20;99.90;;;;;;5027021;28;20186;-86
2022/06/17 07:20:52;;;;;;;7.20;5.73;;;20.30;99.90;;;;;;5028124;28;20648;-85
2022/06/17 07:23:30;;;;;;;9.53;6.13;;;20.30;99.90;;;;;;5026511;28;20312;-87
2022/06/17 07:25:58;;;;;;;9.53;6.00;;;20.50;99.90;;;;;;5027360;28;20345;-85
2022/06/17 07:28:25;;;;;;;11.70;6.77;;;20.60;99.90;;;;;;5026454;28;20300;-85
2022/06/17 07:30:53;;;;;;;8.17;6.43;;;20.70;99.90;;;;;;5025966;28;20222;-85
2022/06/17 07:33:20;;;;;;;10.70;6.57;;;20.70;99.90;;;;;;5026189;28;20329;-84
2022/06/17 07:35:47;;;;;;;11.10;6.03;;;20.80;99.90;;;;;;5059074;28;21306;-86
2022/06/17 07:41:06;;;;;;;7.23;5.73;;;21.10;99.90;;;;;;5026914;28;20313;-85
2022/06/17 07:43:32;;;;;;;10.47;6.17;;;21.40;99.90;;;;;;5027463;28;20238;-85
2022/06/17 07:45:59;;;;;;;8.23;4.93;;;22.00;99.90;;;;;;5025348;28;20222;-86
2022/06/17 07:48:25;;;;;;;7.87;5.30;;;23.00;99.90;;;;;;5022523;28;20215;-86
2022/06/17 07:50:52;;;;;;;7.40;5.50;;;23.60;99.90;;;;;;5026950;28;20209;-87
2022/06/17 07:53:18;;;;;;;6.40;5.23;;;23.80;99.90;;;;;;5009277;28;20238;-85
2022/06/17 07:55:45;;;;;;;6.30;5.70;;;24.00;99.90;;;;;;5026115;28;20989;-87
2022/06/17 07:58:12;;;;;;;7.30;5.75;;;24.80;99.90;;;;;;5026805;28;20664;-89
2022/06/17 08:00:42;;;;;;;6.25;5.00;;;25.70;99.90;;;;;;5027034;28;20305;-85
2022/06/17 08:03:08;;;;;;;6.22;5.07;;;26.40;99.90;;;;;;5026823;28;20321;-86
2022/06/17 08:05:35;;;;;;;5.43;4.93;;;26.60;99.90;;;;;;5025755;28;20281;-86
2022/06/17 08:08:04;;;;;;;7.10;5.30;;;25.80;99.90;;;;;;5025771;28;20224;-84
2022/06/17 08:10:33;;;;;;;8.68;5.53;;;25.30;99.90;;;;;;5009018;28;20218;-85
2022/06/17 08:12:59;;;;;;;6.72;5.07;;;24.70;99.90;;;;;;5027618;28;20238;-85
2022/06/17 08:15:26;;;;;;;7.55;4.65;;;24.60;99.90;;;;;;5026302;28;20230;-92
2022/06/17 08:17:52;;;;;;;8.68;5.40;;;24.10;99.90;;;;;;5026089;28;20648;-86
2022/06/17 08:20:24;;;;;;;8.15;5.20;;;23.90;99.90;;;;;;5009077;28;20225;-85
2022/06/17 08:22:49;;;;;;;12.45;6.15;;;23.80;99.90;;;;;;5026315;28;20235;-83
2022/06/17 08:25:16;;;;;;;13.95;5.80;;;23.80;99.90;;;;;;5026328;28;20231;-84
2022/06/17 08:28:03;;;;;;;7.00;4.95;;;23.80;99.90;;;;;;5026621;28;20294;-83
2022/06/17 08:30:33;;;;;;;5.47;4.28;;;23.70;99.90;;;;;;5025411;28;20223;-84
2022/06/17 08:32:59;;;;;;;6.03;4.88;;;23.60;99.90;;;;;;5017107;28;20690;-85
2022/06/17 08:35:43;;;;;;;5.65;4.95;;;23.70;99.90;;;;;;5041688;28;20215;-86
2022/06/17 08:38:17;;;;;;;7.00;4.50;;;23.80;99.90;;;;;;5026683;28;20642;-85
2022/06/17 08:40:59;;;;;;;6.90;4.68;;;23.70;99.90;;;;;;5026574;28;20210;-83
2022/06/17 08:44:02;;;;;;;9.37;4.93;;;23.40;99.90;;;;;;5057365;28;20227;-84
2022/06/17 08:46:33;;;;;;;8.52;4.57;;;23.10;99.90;;;;;;5025791;28;20218;-85
2022/06/17 08:49:14;;;;;;;10.97;4.50;;;23.20;99.90;;;;;;5026104;28;20272;-84
2022/06/17 08:52:08;;;;;;;8.05;4.50;;;23.20;99.90;;;;;;5025966;28;20288;-86
2022/06/17 08:54:45;;;;;;;6.30;5.13;;;23.20;99.90;;;;;;5033755;28;20221;-86
2022/06/17 08:57:27;;;;;;;5.53;5.03;;;23.20;99.90;;;;;;5040964;28;20191;-84
2022/06/17 09:00:06;;;;;;;5.32;4.82;;;23.30;99.90;;;;;;5025993;28;21026;-84
2022/06/17 09:02:59;;;;;;;7.50;4.93;;;23.30;99.90;;;;;;5026067;28;20243;-84
2022/06/17 09:05:48;;;;;;;7.43;4.60;;;23.50;99.90;;;;;;5041591;28;20227;-83
2022/06/17 09:08:29;;;;;;;5.65;4.50;;;23.90;99.90;;;;;;4999266;28;20789;-88
2022/06/17 09:11:35;;;;;;;5.95;4.75;;;24.20;99.90;;;;;;5025428;28;20360;-83
2022/06/17 09:14:04;;;;;;;4.90;3.85;;;24.90;99.90;;;;;;4995360;28;20223;-86
2022/06/17 09:16:52;;;;;;;7.38;4.75;;;25.70;99.90;;;;;;5024138;28;20240;-87
2022/06/17 09:19:31;;;;;;;6.18;3.88;;;26.30;99.90;;;;;;5023192;28;20222;-86
2022/06/17 09:22:10;;;;;;;7.28;4.55;;;25.80;99.90;;;;;;5024566;28;20210;-84
2022/06/17 09:24:42;;;;;;;7.68;4.32;;;25.30;99.90;;;;;;5024820;28;20222;-84
2022/06/17 09:27:24;;;;;;;5.20;3.88;;;25.00;99.90;;;;;;5025410;28;20466;-85
2022/06/17 09:30:01;;;;;;;4.35;3.95;;;25.10;99.90;;;;;;5024251;28;20190;-84
2022/06/17 09:32:33;;;;;;;7.93;4.68;;;24.80;99.90;;;;;;5024209;28;20287;-85
2022/06/17 09:35:25;;;;;;;5.50;4.00;;;24.70;99.90;;;;;;5056959;28;20218;-89
2022/06/17 09:38:22;;;;;;;5.55;4.47;;;24.70;99.90;;;;;;5021467;28;20215;-84
2022/06/17 09:40:59;;;;;;;7.38;4.43;;;24.80;99.90;;;;;;5024943;28;20252;-84
2022/06/17 09:44:17;;;;;;;5.95;4.70;;;24.90;99.90;;;;;;5023478;28;20226;-84
2022/06/17 09:46:52;;;;;;;8.68;4.55;;;24.90;99.90;;;;;;5014132;28;20732;-87
2022/06/17 09:49:28;;;;;;;16.20;4.55;;;24.80;99.90;;;;;;5024179;28;20230;-90
2022/06/17 09:52:13;;;;;;;5.28;4.32;;;24.80;99.90;;;;;;5050963;28;20225;-84
2022/06/17 09:54:42;;;;;;;5.50;4.22;;;25.00;99.90;;;;;;5021588;28;20940;-90
2022/06/17 09:57:17;;;;;;;5.22;3.70;;;25.10;99.90;;;;;;5020576;28;20245;-86
2022/06/17 09:59:50;;;;;;;5.38;3.80;;;25.00;99.90;;;;;;5022754;28;20198;-84
2022/06/17 10:02:22;;;;;;;5.97;4.28;;;25.10;99.90;;;;;;5022964;28;20376;-85
2022/06/17 10:04:51;;;;;;;4.18;3.67;;;25.00;99.90;;;;;;5056144;28;20222;-84
2022/06/17 10:07:41;;;;;;;5.53;4.18;;;24.80;99.90;;;;;;5022978;28;20221;-84
2022/06/17 10:10:31;;;;;;;5.68;4.18;;;25.10;99.90;;;;;;5023748;28;20305;-87
2022/06/17 10:13:04;;;;;;;5.18;4.15;;;25.00;99.90;;;;;;5023976;28;20253;-83
2022/06/17 10:19:03;;;;;;;4.47;4.03;;;25.20;99.90;;;;;;5024131;28;20229;-88
2022/06/17 10:21:53;;;;;;;4.65;4.18;;;25.30;99.90;;;;;;5022934;28;20228;-90
2022/06/17 10:24:42;;;;;;;6.88;3.90;;;25.50;99.90;;;;;;5024724;28;20238;-87
2022/06/17 10:27:20;;;;;;;5.28;4.55;;;25.80;99.90;;;;;;5024258;28;20190;-86
2022/06/17 10:30:12;;;;;;;5.18;4.28;;;26.20;99.90;;;;;;5024539;28;20178;-86
2022/06/17 10:32:43;;;;;;;5.40;3.67;;;26.20;99.90;;;;;;5023585;28;20630;-88
2022/06/17 10:35:33;;;;;;;6.63;4.68;;;26.40;99.90;;;;;;5054926;28;20966;-84
2022/06/17 10:38:03;;;;;;;7.05;4.65;;;26.30;99.90;;;;;;5023270;28;20211;-91
2022/06/17 10:40:32;;;;;;;7.63;5.13;;;26.60;99.90;;;;;;5025563;28;21110;-89
2022/06/17 10:43:04;;;;;;;7.43;4.57;;;26.60;99.90;;;;;;5023677;28;20218;-86
2022/06/17 10:45:30;;;;;;;6.82;5.00;;;26.70;99.90;;;;;;5024585;28;20207;-86
2022/06/17 10:48:17;;;;;;;6.95;4.93;;;26.60;99.90;;;;;;5027099;28;20202;-83
2022/06/17 10:50:43;;;;;;;5.88;4.57;;;27.00;99.90;;;;;;5028078;28;20207;-90
2022/06/17 10:53:09;;;;;;;5.07;4.22;;;28.00;99.90;;;;;;5027542;28;20234;-88
2022/06/17 10:55:39;;;;;;;5.82;4.75;;;28.60;99.90;;;;;;5028525;28;20680;-87
2022/06/17 10:58:13;;;;;;;5.75;4.90;;;28.60;99.90;;;;;;5027685;28;20680;-86
2022/06/17 11:00:49;;;;;;;5.18;4.45;;;28.30;99.90;;;;;;5028249;28;20214;-86
2022/06/17 11:03:27;;;;;;;5.35;4.28;;;28.70;99.90;;;;;;5028487;28;20245;-88
2022/06/17 11:06:19;;;;;;;4.88;3.75;;;29.10;99.90;;;;;;5028835;28;20190;-89
2022/06/17 11:08:59;;;;;;;6.53;5.50;;;29.80;99.90;;;;;;5043817;28;20575;-90
2022/06/17 11:14:34;;;;;;;9.13;5.65;;;28.50;99.90;;;;;;5028289;28;20679;-91
2022/06/17 11:17:03;;;;;;;6.40;4.68;;;28.30;99.90;;;;;;5028437;28;20222;-88
2022/06/17 11:19:29;;;;;;;6.95;4.85;;;27.80;99.90;;;;;;5028579;28;20226;-88
2022/06/17 11:22:02;;;;;;;7.63;5.20;;;27.90;99.90;;;;;;5028753;28;20222;-88
2022/06/17 11:24:35;;;;;;;6.65;4.93;;;28.40;99.90;;;;;;5027961;28;20316;-87
2022/06/17 11:27:13;;;;;;;8.38;5.07;;;28.60;99.90;;;;;;5027838;28;20644;-87
2022/06/17 11:29:50;;;;;;;4.57;3.78;;;28.90;99.90;;;;;;5028990;28;20186;-89
2022/06/17 11:32:24;;;;;;;7.50;4.82;;;29.40;99.90;;;;;;5028373;28;20229;-91
2022/06/17 11:34:54;;;;;;;8.63;5.38;;;29.20;99.90;;;;;;5027712;28;21066;-87
2022/06/17 11:37:23;;;;;;;7.78;4.63;;;28.60;99.90;;;;;;5026900;28;20271;-88
2022/06/17 11:40:24;;;;;;;6.00;4.20;;;28.60;99.90;;;;;;5028235;28;20225;-88
2022/06/17 11:42:59;;;;;;;6.47;4.40;;;28.60;99.90;;;;;;5026733;28;20715;-89
2022/06/17 11:45:28;;;;;;;5.05;4.38;;;28.40;99.90;;;;;;5027993;28;20210;-87
2022/06/17 11:48:15;;;;;;;8.32;4.63;;;28.90;99.90;;;;;;5029011;28;20245;-91
2022/06/17 11:50:59;;;;;;;7.18;3.72;;;29.40;99.90;;;;;;5007577;28;20638;-89
2022/06/17 11:53:26;;;;;;;7.80;4.20;;;28.80;99.90;;;;;;5028181;28;20211;-87
2022/06/17 11:55:52;;;;;;;7.68;4.47;;;28.80;99.90;;;;;;5027046;28;20722;-87
2022/06/17 11:58:19;;;;;;;4.47;3.28;;;29.10;99.90;;;;;;5027790;28;20257;-89
2022/06/17 12:01:13;;;;;;;5.55;4.13;;;28.80;99.90;;;;;;5027269;28;20211;-89
2022/06/17 12:03:42;;;;;;;4.93;3.75;;;28.50;99.90;;;;;;5027425;28;20284;-86
2022/06/17 12:06:30;;;;;;;4.05;3.17;;;28.00;99.90;;;;;;5026478;28;20362;-87
2022/06/17 12:09:00;;;;;;;6.13;3.83;;;27.90;99.90;;;;;;5027365;28;20669;-86
2022/06/17 12:11:57;;;;;;;6.68;4.07;;;27.70;99.90;;;;;;5027235;28;20262;-90
2022/06/17 12:14:47;;;;;;;7.65;4.10;;;27.70;99.90;;;;;;5018461;28;20226;-87
2022/06/17 12:17:15;;;;;;;6.95;4.00;;;28.00;99.90;;;;;;5021221;28;20272;-86
2022/06/17 12:19:42;;;;;;;6.53;4.25;;;28.00;99.90;;;;;;5009060;28;20226;-86
2022/06/17 12:22:18;;;;;;;6.25;4.63;;;28.20;99.90;;;;;;5026226;28;20573;-85
2022/06/17 12:25:03;;;;;;;4.65;3.90;;;28.30;99.90;;;;;;5026809;28;20743;-87
2022/06/17 12:27:36;;;;;;;4.78;3.80;;;28.50;99.90;;;;;;5026715;28;20598;-88
2022/06/17 12:30:17;;;;;;;5.05;3.70;;;28.40;99.90;;;;;;5025587;28;20240;-87
2022/06/17 12:32:47;;;;;;;5.22;3.22;;;28.20;99.90;;;;;;5022830;28;20219;-86
2022/06/17 12:35:27;;;;;;;6.93;3.80;;;27.90;99.90;;;;;;5058769;28;20218;-85
2022/06/17 12:37:59;;;;;;;6.30;3.42;;;27.70;99.90;;;;;;5025705;28;20237;-87
2022/06/17 12:40:41;;;;;;;4.43;3.92;;;27.50;99.90;;;;;;5025709;28;20226;-86
2022/06/17 12:43:37;;;;;;;7.18;3.65;;;27.50;99.90;;;;;;5025800;28;20230;-86
2022/06/17 12:46:04;;;;;;;5.28;3.38;;;27.50;99.90;;;;;;5058304;28;20226;-90
2022/06/17 12:48:39;;;;;;;5.32;3.90;;;27.60;99.90;;;;;;5025142;28;20215;-90
2022/06/17 12:55:05;;;;;;;5.82;3.45;;;27.30;99.90;;;;;;5004502;28;20770;-90
2022/06/17 12:57:53;;;;;;;5.35;3.72;;;27.50;99.90;;;;;;5026138;28;20690;-87
2022/06/17 13:00:24;;;;;;;3.97;3.40;;;27.60;99.90;;;;;;5026189;28;20734;-86
2022/06/17 13:03:02;;;;;;;7.68;4.10;;;27.50;99.90;;;;;;5025593;28;20238;-87
2022/06/17 13:05:50;;;;;;;4.45;3.22;;;27.50;99.90;;;;;;5025986;28;20234;-86
2022/06/17 13:08:29;;;;;;;4.97;3.55;;;27.70;99.90;;;;;;5025904;28;21055;-89
2022/06/17 13:11:22;;;;;;;6.45;4.18;;;27.60;99.90;;;;;;5024702;28;21176;-87
2022/06/17 13:13:51;;;;;;;3.88;3.38;;;27.70;99.90;;;;;;5024319;28;20579;-91
2022/06/17 13:16:39;;;;;;;3.53;3.22;;;27.60;99.90;;;;;;5023157;28;20264;-92
2022/06/17 13:19:12;;;;;;;3.78;3.47;;;27.60;99.90;;;;;;5025098;28;20325;-88
2022/06/17 13:21:44;;;;;;;6.07;3.85;;;27.70;99.90;;;;;;5025379;28;20230;-87
2022/06/17 13:24:26;;;;;;;5.15;3.28;;;27.70;99.90;;;;;;5025666;28;20241;-91
2022/06/17 13:27:24;;;;;;;5.78;4.10;;;27.80;99.90;;;;;;5025352;28;20185;-87
2022/06/17 13:29:56;;;;;;;5.82;4.13;;;28.40;99.90;;;;;;5020587;28;20226;-87
2022/06/17 13:32:39;;;;;;;4.00;3.70;;;28.00;99.90;;;;;;5031925;28;20226;-87